createdAt,value
2016-12-11T00:00:01.167Z,22.76
2016-12-11T00:00:15.518Z,22.79
2016-12-11T00:00:29.952Z,22.78
2016-12-11T00:00:44.430Z,22.78
2016-12-11T00:00:58.823Z,22.85
2016-12-11T00:01:13.273Z,22.81
2016-12-11T00:01:27.630Z,22.75
2016-12-11T00:01:42.019Z,22.82
2016-12-11T00:01:56.420Z,22.79
2016-12-11T00:02:10.827Z,22.81
2016-12-11T00:02:25.230Z,22.84
2016-12-11T00:02:39.610Z,22.86
2016-12-11T00:02:54.051Z,22.84
2016-12-11T00:03:08.445Z,22.85
2016-12-11T00:03:22.757Z,22.82
2016-12-11T00:03:37.116Z,22.85
2016-12-11T00:03:51.538Z,22.81
2016-12-11T00:04:05.937Z,22.81
2016-12-11T00:04:20.389Z,22.82
2016-12-11T00:04:34.771Z,22.84
2016-12-11T00:04:49.197Z,22.86
2016-12-11T00:05:03.584Z,22.94
2016-12-11T00:05:18.102Z,22.85
2016-12-11T00:05:32.558Z,22.84
2016-12-11T00:05:46.955Z,22.91
2016-12-11T00:06:01.390Z,22.84
2016-12-11T00:06:15.724Z,22.79
2016-12-11T00:06:30.129Z,22.78
2016-12-11T00:06:44.516Z,22.79
2016-12-11T00:06:58.893Z,22.79
2016-12-11T00:07:13.267Z,22.84
2016-12-11T00:07:27.657Z,22.81
2016-12-11T00:07:42.049Z,22.84
2016-12-11T00:07:56.498Z,22.84
2016-12-11T00:08:10.910Z,22.73
2016-12-11T00:08:25.271Z,22.86
2016-12-11T00:08:39.714Z,22.79
2016-12-11T00:08:54.110Z,22.78
2016-12-11T00:09:08.468Z,22.78
2016-12-11T00:09:22.819Z,22.82
2016-12-11T00:09:37.152Z,22.75
2016-12-11T00:09:51.607Z,22.82
2016-12-11T00:10:06.026Z,22.73
2016-12-11T00:10:20.777Z,22.79
2016-12-11T00:10:35.792Z,22.84
2016-12-11T00:10:50.141Z,22.75
2016-12-11T00:11:04.513Z,22.76
2016-12-11T00:11:18.882Z,22.82
2016-12-11T00:11:33.324Z,22.79
2016-12-11T00:11:47.692Z,22.84
2016-12-11T00:12:02.131Z,22.81
2016-12-11T00:12:16.579Z,22.81
2016-12-11T00:12:30.944Z,22.78
2016-12-11T00:12:45.345Z,22.79
2016-12-11T00:12:59.733Z,22.69
2016-12-11T00:13:14.140Z,22.82
2016-12-11T00:13:28.586Z,22.78
2016-12-11T00:13:43.264Z,22.73
2016-12-11T00:13:57.633Z,22.76
2016-12-11T00:14:12.039Z,22.76
2016-12-11T00:14:26.420Z,22.7
2016-12-11T00:14:40.813Z,22.76
2016-12-11T00:14:55.280Z,22.71
2016-12-11T00:15:09.665Z,22.69
2016-12-11T00:15:24.080Z,22.7
2016-12-11T00:15:38.516Z,22.66
2016-12-11T00:15:52.887Z,22.66
2016-12-11T00:16:07.328Z,22.66
2016-12-11T00:16:21.707Z,22.66
2016-12-11T00:16:36.081Z,22.66
2016-12-11T00:16:50.483Z,22.66
2016-12-11T00:17:04.862Z,22.63
2016-12-11T00:17:19.264Z,22.59
2016-12-11T00:17:33.648Z,22.61
2016-12-11T00:17:48.030Z,22.61
2016-12-11T00:18:02.426Z,22.63
2016-12-11T00:18:16.861Z,22.57
2016-12-11T00:18:31.287Z,22.59
2016-12-11T00:18:45.708Z,22.6
2016-12-11T00:19:00.139Z,22.55
2016-12-11T00:19:14.475Z,22.59
2016-12-11T00:19:28.905Z,22.63
2016-12-11T00:19:43.271Z,22.64
2016-12-11T00:19:57.632Z,22.6
2016-12-11T00:20:12.057Z,22.7
2016-12-11T00:20:26.425Z,22.69
2016-12-11T00:20:40.889Z,22.63
2016-12-11T00:20:55.341Z,22.71
2016-12-11T00:21:09.795Z,22.69
2016-12-11T00:21:24.192Z,22.67
2016-12-11T00:21:38.552Z,22.73
2016-12-11T00:21:52.886Z,22.67
2016-12-11T00:22:07.285Z,22.71
2016-12-11T00:22:21.656Z,22.76
2016-12-11T00:22:36.051Z,22.84
2016-12-11T00:22:50.489Z,22.79
2016-12-11T00:23:04.835Z,22.73
2016-12-11T00:23:19.183Z,22.84
2016-12-11T00:23:33.884Z,22.82
2016-12-11T00:23:48.323Z,22.84
2016-12-11T00:24:02.658Z,22.79
2016-12-11T00:24:17.066Z,22.79
2016-12-11T00:24:31.372Z,22.75
2016-12-11T00:24:45.719Z,22.88
2016-12-11T00:25:00.096Z,22.84
2016-12-11T00:25:14.484Z,22.79
2016-12-11T00:25:29.164Z,22.76
2016-12-11T00:25:43.486Z,22.84
2016-12-11T00:25:57.891Z,22.81
2016-12-11T00:26:12.326Z,22.82
2016-12-11T00:26:26.656Z,22.81
2016-12-11T00:26:41.093Z,22.79
2016-12-11T00:26:55.469Z,22.81
2016-12-11T00:27:09.847Z,22.84
2016-12-11T00:27:24.324Z,22.82
2016-12-11T00:27:38.749Z,22.85
2016-12-11T00:27:53.120Z,22.78
2016-12-11T00:28:07.573Z,22.85
2016-12-11T00:28:21.924Z,22.81
2016-12-11T00:28:36.320Z,22.84
2016-12-11T00:28:50.715Z,22.85
2016-12-11T00:29:05.116Z,22.89
2016-12-11T00:29:19.520Z,22.88
2016-12-11T00:29:33.888Z,22.79
2016-12-11T00:29:48.252Z,22.81
2016-12-11T00:30:02.590Z,22.76
2016-12-11T00:30:16.928Z,22.81
2016-12-11T00:30:31.388Z,22.78
2016-12-11T00:30:45.770Z,22.82
2016-12-11T00:31:00.239Z,22.84
2016-12-11T00:31:14.646Z,22.88
2016-12-11T00:31:29.100Z,22.88
2016-12-11T00:31:43.405Z,22.86
2016-12-11T00:31:57.760Z,22.88
2016-12-11T00:32:12.171Z,22.85
2016-12-11T00:32:26.639Z,22.81
2016-12-11T00:32:41.056Z,22.85
2016-12-11T00:32:55.460Z,22.84
2016-12-11T00:33:09.888Z,22.84
2016-12-11T00:33:24.212Z,22.86
2016-12-11T00:33:38.646Z,22.85
2016-12-11T00:33:53.108Z,22.85
2016-12-11T00:34:07.466Z,22.86
2016-12-11T00:34:21.862Z,22.84
2016-12-11T00:34:36.242Z,22.84
2016-12-11T00:34:50.573Z,22.91
2016-12-11T00:35:04.930Z,22.86
2016-12-11T00:35:19.257Z,22.89
2016-12-11T00:35:33.632Z,22.88
2016-12-11T00:35:48.077Z,22.82
2016-12-11T00:36:02.478Z,22.85
2016-12-11T00:36:16.885Z,22.79
2016-12-11T00:36:31.206Z,22.73
2016-12-11T00:36:45.636Z,22.73
2016-12-11T00:37:00.007Z,22.71
2016-12-11T00:37:14.401Z,22.75
2016-12-11T00:37:28.774Z,22.76
2016-12-11T00:37:43.152Z,22.73
2016-12-11T00:37:57.612Z,22.82
2016-12-11T00:38:12.029Z,22.78
2016-12-11T00:38:26.425Z,22.78
2016-12-11T00:38:40.800Z,22.82
2016-12-11T00:38:55.197Z,22.75
2016-12-11T00:39:09.553Z,22.79
2016-12-11T00:39:23.933Z,22.78
2016-12-11T00:39:38.370Z,22.79
2016-12-11T00:39:52.779Z,22.78
2016-12-11T00:40:07.133Z,22.79
2016-12-11T00:40:21.490Z,22.84
2016-12-11T00:40:36.176Z,22.84
2016-12-11T00:40:50.568Z,22.76
2016-12-11T00:41:04.929Z,22.73
2016-12-11T00:41:19.319Z,22.85
2016-12-11T00:41:33.744Z,22.86
2016-12-11T00:41:48.143Z,22.81
2016-12-11T00:42:02.618Z,22.91
2016-12-11T00:42:17.020Z,22.84
2016-12-11T00:42:31.408Z,22.88
2016-12-11T00:42:45.834Z,22.88
2016-12-11T00:43:00.223Z,22.88
2016-12-11T00:43:14.635Z,22.85
2016-12-11T00:43:28.964Z,22.82
2016-12-11T00:43:43.315Z,22.78
2016-12-11T00:43:57.627Z,22.78
2016-12-11T00:44:11.965Z,22.82
2016-12-11T00:44:26.389Z,22.86
2016-12-11T00:44:40.842Z,22.86
2016-12-11T00:44:55.204Z,22.79
2016-12-11T00:45:09.547Z,22.84
2016-12-11T00:45:23.903Z,22.85
2016-12-11T00:45:38.307Z,22.85
2016-12-11T00:45:52.758Z,22.85
2016-12-11T00:46:07.067Z,22.88
2016-12-11T00:46:21.390Z,22.84
2016-12-11T00:46:35.783Z,22.92
2016-12-11T00:46:50.135Z,22.89
2016-12-11T00:47:04.493Z,22.91
2016-12-11T00:47:18.902Z,22.99
2016-12-11T00:47:33.193Z,22.94
2016-12-11T00:47:47.632Z,22.97
2016-12-11T00:48:02.015Z,23.03
2016-12-11T00:48:16.391Z,23
2016-12-11T00:48:30.799Z,23.06
2016-12-11T00:48:45.191Z,22.94
2016-12-11T00:48:59.526Z,23.06
2016-12-11T00:49:13.883Z,23.09
2016-12-11T00:49:28.331Z,22.99
2016-12-11T00:49:42.706Z,22.99
2016-12-11T00:49:57.080Z,23.07
2016-12-11T00:50:11.500Z,23.06
2016-12-11T00:50:25.924Z,23.07
2016-12-11T00:50:40.358Z,23.09
2016-12-11T00:50:54.732Z,23.04
2016-12-11T00:51:09.171Z,23.15
2016-12-11T00:51:23.499Z,23.1
2016-12-11T00:51:37.842Z,23.04
2016-12-11T00:51:52.211Z,23.07
2016-12-11T00:52:06.572Z,23.09
2016-12-11T00:52:20.995Z,23.01
2016-12-11T00:52:35.416Z,23.01
2016-12-11T00:52:49.852Z,22.96
2016-12-11T00:53:04.269Z,23.03
2016-12-11T00:53:18.680Z,22.94
2016-12-11T00:53:33.123Z,22.91
2016-12-11T00:53:47.508Z,22.86
2016-12-11T00:54:01.986Z,22.88
2016-12-11T00:54:16.360Z,22.91
2016-12-11T00:54:30.723Z,22.94
2016-12-11T00:54:45.062Z,22.89
2016-12-11T00:54:59.402Z,22.99
2016-12-11T00:55:13.787Z,23.01
2016-12-11T00:55:28.176Z,22.94
2016-12-11T00:55:42.792Z,22.96
2016-12-11T00:55:57.175Z,22.92
2016-12-11T00:56:11.581Z,22.84
2016-12-11T00:56:26.005Z,22.86
2016-12-11T00:56:40.333Z,22.88
2016-12-11T00:56:54.704Z,22.85
2016-12-11T00:57:09.139Z,22.86
2016-12-11T00:57:23.550Z,22.89
2016-12-11T00:57:37.947Z,22.86
2016-12-11T00:57:52.355Z,22.88
2016-12-11T00:58:06.769Z,22.81
2016-12-11T00:58:21.244Z,22.85
2016-12-11T00:58:35.603Z,22.82
2016-12-11T00:58:49.988Z,22.85
2016-12-11T00:59:04.331Z,22.86
2016-12-11T00:59:18.695Z,22.86
2016-12-11T00:59:33.102Z,22.85
2016-12-11T00:59:47.530Z,22.84
2016-12-11T01:00:01.983Z,22.81
2016-12-11T01:00:16.426Z,22.81
2016-12-11T01:00:30.813Z,22.81
2016-12-11T01:00:45.191Z,22.84
2016-12-11T01:00:59.645Z,22.82
2016-12-11T01:01:14.030Z,22.84
2016-12-11T01:01:28.401Z,22.81
2016-12-11T01:01:42.788Z,22.79
2016-12-11T01:01:57.162Z,22.79
2016-12-11T01:02:11.542Z,22.79
2016-12-11T01:02:25.909Z,22.71
2016-12-11T01:02:40.233Z,22.7
2016-12-11T01:02:54.590Z,22.67
2016-12-11T01:03:08.945Z,22.66
2016-12-11T01:03:23.375Z,22.61
2016-12-11T01:03:37.762Z,22.57
2016-12-11T01:03:52.115Z,22.6
2016-12-11T01:04:06.518Z,22.61
2016-12-11T01:04:20.871Z,22.55
2016-12-11T01:04:35.253Z,22.49
2016-12-11T01:04:49.702Z,22.57
2016-12-11T01:05:04.114Z,22.52
2016-12-11T01:05:18.532Z,22.54
2016-12-11T01:05:32.951Z,22.54
2016-12-11T01:05:47.392Z,22.57
2016-12-11T01:06:01.791Z,22.48
2016-12-11T01:06:16.155Z,22.52
2016-12-11T01:06:30.490Z,22.54
2016-12-11T01:06:44.854Z,22.51
2016-12-11T01:06:59.194Z,22.48
2016-12-11T01:07:13.659Z,22.44
2016-12-11T01:07:28.044Z,22.42
2016-12-11T01:07:42.441Z,22.54
2016-12-11T01:07:56.969Z,22.49
2016-12-11T01:08:11.405Z,22.55
2016-12-11T01:08:25.799Z,22.46
2016-12-11T01:08:40.189Z,22.51
2016-12-11T01:08:54.561Z,22.52
2016-12-11T01:09:08.938Z,22.52
2016-12-11T01:09:23.337Z,22.46
2016-12-11T01:09:37.682Z,22.54
2016-12-11T01:09:52.098Z,22.41
2016-12-11T01:10:06.505Z,22.57
2016-12-11T01:10:20.920Z,22.46
2016-12-11T01:10:35.371Z,22.44
2016-12-11T01:10:50.066Z,22.45
2016-12-11T01:11:04.520Z,22.44
2016-12-11T01:11:18.868Z,22.42
2016-12-11T01:11:33.242Z,22.52
2016-12-11T01:11:47.586Z,22.46
2016-12-11T01:12:01.928Z,22.44
2016-12-11T01:12:16.316Z,22.45
2016-12-11T01:12:30.681Z,22.44
2016-12-11T01:12:45.010Z,22.54
2016-12-11T01:12:59.374Z,22.57
2016-12-11T01:13:13.765Z,22.52
2016-12-11T01:13:28.125Z,22.54
2016-12-11T01:13:42.488Z,22.45
2016-12-11T01:13:56.821Z,22.46
2016-12-11T01:14:11.166Z,22.42
2016-12-11T01:14:25.506Z,22.45
2016-12-11T01:14:39.927Z,22.57
2016-12-11T01:14:54.328Z,22.57
2016-12-11T01:15:08.680Z,22.55
2016-12-11T01:15:23.044Z,22.49
2016-12-11T01:15:37.421Z,22.52
2016-12-11T01:15:51.812Z,22.54
2016-12-11T01:16:06.165Z,22.54
2016-12-11T01:16:20.567Z,22.54
2016-12-11T01:16:34.974Z,22.52
2016-12-11T01:16:49.396Z,22.45
2016-12-11T01:17:03.742Z,22.54
2016-12-11T01:17:18.097Z,22.63
2016-12-11T01:17:32.496Z,22.59
2016-12-11T01:17:46.842Z,22.6
2016-12-11T01:18:01.225Z,22.61
2016-12-11T01:18:15.616Z,22.63
2016-12-11T01:18:29.976Z,22.66
2016-12-11T01:18:44.614Z,22.67
2016-12-11T01:18:58.999Z,22.64
2016-12-11T01:19:13.382Z,22.64
2016-12-11T01:19:27.755Z,22.66
2016-12-11T01:19:42.152Z,22.66
2016-12-11T01:19:56.541Z,22.7
2016-12-11T01:20:10.832Z,22.66
2016-12-11T01:20:25.177Z,22.66
2016-12-11T01:20:39.572Z,22.69
2016-12-11T01:20:53.955Z,22.64
2016-12-11T01:21:08.323Z,22.6
2016-12-11T01:21:22.719Z,22.61
2016-12-11T01:21:36.983Z,22.54
2016-12-11T01:21:51.381Z,22.64
2016-12-11T01:22:05.873Z,22.57
2016-12-11T01:22:20.205Z,22.61
2016-12-11T01:22:34.549Z,22.61
2016-12-11T01:22:48.913Z,22.59
2016-12-11T01:23:03.292Z,22.55
2016-12-11T01:23:17.659Z,22.55
2016-12-11T01:23:32.055Z,22.55
2016-12-11T01:23:46.464Z,22.52
2016-12-11T01:24:00.862Z,22.57
2016-12-11T01:24:15.316Z,22.61
2016-12-11T01:24:29.689Z,22.52
2016-12-11T01:24:44.043Z,22.57
2016-12-11T01:24:58.506Z,22.57
2016-12-11T01:25:12.930Z,22.6
2016-12-11T01:25:27.315Z,22.57
2016-12-11T01:25:41.743Z,22.59
2016-12-11T01:25:56.476Z,22.61
2016-12-11T01:26:10.855Z,22.52
2016-12-11T01:26:25.342Z,22.57
2016-12-11T01:26:39.705Z,22.6
2016-12-11T01:26:54.074Z,22.57
2016-12-11T01:27:08.474Z,22.46
2016-12-11T01:27:22.814Z,22.55
2016-12-11T01:27:37.199Z,22.57
2016-12-11T01:27:51.548Z,22.49
2016-12-11T01:28:05.971Z,22.52
2016-12-11T01:28:20.459Z,22.44
2016-12-11T01:28:34.857Z,22.46
2016-12-11T01:28:49.388Z,22.45
2016-12-11T01:29:03.687Z,22.31
2016-12-11T01:29:18.030Z,22.44
2016-12-11T01:29:32.466Z,22.42
2016-12-11T01:29:46.865Z,22.44
2016-12-11T01:30:01.293Z,22.44
2016-12-11T01:30:15.688Z,22.39
2016-12-11T01:30:30.086Z,22.31
2016-12-11T01:30:44.535Z,22.34
2016-12-11T01:30:58.935Z,22.3
2016-12-11T01:31:13.374Z,22.44
2016-12-11T01:31:27.828Z,22.38
2016-12-11T01:31:42.194Z,22.36
2016-12-11T01:31:56.596Z,22.29
2016-12-11T01:32:11.009Z,22.27
2016-12-11T01:32:25.364Z,22.31
2016-12-11T01:32:39.736Z,22.36
2016-12-11T01:32:54.126Z,22.29
2016-12-11T01:33:08.528Z,22.27
2016-12-11T01:33:22.930Z,22.27
2016-12-11T01:33:37.331Z,22.39
2016-12-11T01:33:51.729Z,22.33
2016-12-11T01:34:06.161Z,22.42
2016-12-11T01:34:20.590Z,22.36
2016-12-11T01:34:34.962Z,22.29
2016-12-11T01:34:49.325Z,22.33
2016-12-11T01:35:03.728Z,22.31
2016-12-11T01:35:18.137Z,22.36
2016-12-11T01:35:32.521Z,22.33
2016-12-11T01:35:46.953Z,22.33
2016-12-11T01:36:01.362Z,22.29
2016-12-11T01:36:15.775Z,22.31
2016-12-11T01:36:30.152Z,22.34
2016-12-11T01:36:44.537Z,22.38
2016-12-11T01:36:58.903Z,22.29
2016-12-11T01:37:13.385Z,22.33
2016-12-11T01:37:27.776Z,22.31
2016-12-11T01:37:42.130Z,22.31
2016-12-11T01:37:56.542Z,22.34
2016-12-11T01:38:10.999Z,22.36
2016-12-11T01:38:25.390Z,22.27
2016-12-11T01:38:39.777Z,22.3
2016-12-11T01:38:54.166Z,22.29
2016-12-11T01:39:08.507Z,22.33
2016-12-11T01:39:22.906Z,22.27
2016-12-11T01:39:37.283Z,22.38
2016-12-11T01:39:51.655Z,22.36
2016-12-11T01:40:06.126Z,22.29
2016-12-11T01:40:20.517Z,22.34
2016-12-11T01:40:34.949Z,22.33
2016-12-11T01:40:49.325Z,22.41
2016-12-11T01:41:04.038Z,22.31
2016-12-11T01:41:18.488Z,22.26
2016-12-11T01:41:32.893Z,22.33
2016-12-11T01:41:47.239Z,22.29
2016-12-11T01:42:01.786Z,22.34
2016-12-11T01:42:16.109Z,22.27
2016-12-11T01:42:30.550Z,22.3
2016-12-11T01:42:44.983Z,22.26
2016-12-11T01:42:59.376Z,22.34
2016-12-11T01:43:13.775Z,22.31
2016-12-11T01:43:28.174Z,22.31
2016-12-11T01:43:42.607Z,22.33
2016-12-11T01:43:57.093Z,22.3
2016-12-11T01:44:11.442Z,22.36
2016-12-11T01:44:25.784Z,22.27
2016-12-11T01:44:40.156Z,22.33
2016-12-11T01:44:54.557Z,22.33
2016-12-11T01:45:08.933Z,22.36
2016-12-11T01:45:23.288Z,22.41
2016-12-11T01:45:37.661Z,22.31
2016-12-11T01:45:52.129Z,22.38
2016-12-11T01:46:06.629Z,22.3
2016-12-11T01:46:21.010Z,22.34
2016-12-11T01:46:35.417Z,22.34
2016-12-11T01:46:49.749Z,22.34
2016-12-11T01:47:04.122Z,22.39
2016-12-11T01:47:18.571Z,22.29
2016-12-11T01:47:33.017Z,22.34
2016-12-11T01:47:47.380Z,22.44
2016-12-11T01:48:01.694Z,22.36
2016-12-11T01:48:16.050Z,22.41
2016-12-11T01:48:30.433Z,22.36
2016-12-11T01:48:44.852Z,22.33
2016-12-11T01:48:59.266Z,22.36
2016-12-11T01:49:13.664Z,22.31
2016-12-11T01:49:28.083Z,22.31
2016-12-11T01:49:42.441Z,22.42
2016-12-11T01:49:56.863Z,22.39
2016-12-11T01:50:11.279Z,22.31
2016-12-11T01:50:25.727Z,22.44
2016-12-11T01:50:40.075Z,22.38
2016-12-11T01:50:54.505Z,22.44
2016-12-11T01:51:08.843Z,22.42
2016-12-11T01:51:23.169Z,22.45
2016-12-11T01:51:37.476Z,22.46
2016-12-11T01:51:51.907Z,22.42
2016-12-11T01:52:06.338Z,22.46
2016-12-11T01:52:20.686Z,22.41
2016-12-11T01:52:35.031Z,22.44
2016-12-11T01:52:49.427Z,22.44
2016-12-11T01:53:03.839Z,22.49
2016-12-11T01:53:18.287Z,22.55
2016-12-11T01:53:32.611Z,22.54
2016-12-11T01:53:47.068Z,22.54
2016-12-11T01:54:01.444Z,22.52
2016-12-11T01:54:15.883Z,22.51
2016-12-11T01:54:30.283Z,22.52
2016-12-11T01:54:44.636Z,22.55
2016-12-11T01:54:59.087Z,22.57
2016-12-11T01:55:13.390Z,22.57
2016-12-11T01:55:27.873Z,22.54
2016-12-11T01:55:42.280Z,22.52
2016-12-11T01:55:56.675Z,22.55
2016-12-11T01:56:11.526Z,22.45
2016-12-11T01:56:25.905Z,22.42
2016-12-11T01:56:40.324Z,22.48
2016-12-11T01:56:54.710Z,22.31
2016-12-11T01:57:09.160Z,22.41
2016-12-11T01:57:23.551Z,22.44
2016-12-11T01:57:37.872Z,22.3
2016-12-11T01:57:52.254Z,22.44
2016-12-11T01:58:06.706Z,22.36
2016-12-11T01:58:21.074Z,22.38
2016-12-11T01:58:35.475Z,22.34
2016-12-11T01:58:49.838Z,22.36
2016-12-11T01:59:04.258Z,22.33
2016-12-11T01:59:18.682Z,22.29
2016-12-11T01:59:33.017Z,22.33
2016-12-11T01:59:47.357Z,22.36
2016-12-11T02:00:01.758Z,22.31
2016-12-11T02:00:16.145Z,22.33
2016-12-11T02:00:30.531Z,22.36
2016-12-11T02:00:44.871Z,22.36
2016-12-11T02:00:59.263Z,22.38
2016-12-11T02:01:13.647Z,22.3
2016-12-11T02:01:27.991Z,22.26
2016-12-11T02:01:42.435Z,22.23
2016-12-11T02:01:56.848Z,22.23
2016-12-11T02:02:11.248Z,22.2
2016-12-11T02:02:25.679Z,22.23
2016-12-11T02:02:40.057Z,22.29
2016-12-11T02:02:54.377Z,22.18
2016-12-11T02:03:08.783Z,22.24
2016-12-11T02:03:23.211Z,22.3
2016-12-11T02:03:37.612Z,22.24
2016-12-11T02:03:52.001Z,22.31
2016-12-11T02:04:06.369Z,22.2
2016-12-11T02:04:20.729Z,22.26
2016-12-11T02:04:35.177Z,22.23
2016-12-11T02:04:49.552Z,22.26
2016-12-11T02:05:03.874Z,22.22
2016-12-11T02:05:18.292Z,22.15
2016-12-11T02:05:32.755Z,22.24
2016-12-11T02:05:47.132Z,22.31
2016-12-11T02:06:01.512Z,22.23
2016-12-11T02:06:15.881Z,22.29
2016-12-11T02:06:30.214Z,22.31
2016-12-11T02:06:44.613Z,22.26
2016-12-11T02:06:59.050Z,22.3
2016-12-11T02:07:13.408Z,22.27
2016-12-11T02:07:27.806Z,22.36
2016-12-11T02:07:42.173Z,22.26
2016-12-11T02:07:56.541Z,22.27
2016-12-11T02:08:10.886Z,22.22
2016-12-11T02:08:25.337Z,22.2
2016-12-11T02:08:39.771Z,22.3
2016-12-11T02:08:54.185Z,22.24
2016-12-11T02:09:08.620Z,22.27
2016-12-11T02:09:22.983Z,22.26
2016-12-11T02:09:37.267Z,22.24
2016-12-11T02:09:51.705Z,22.16
2016-12-11T02:10:06.055Z,22.22
2016-12-11T02:10:20.453Z,22.18
2016-12-11T02:10:34.894Z,22.18
2016-12-11T02:10:49.300Z,22.24
2016-12-11T02:11:03.667Z,22.24
2016-12-11T02:11:18.306Z,22.22
2016-12-11T02:11:32.685Z,22.31
2016-12-11T02:11:47.022Z,22.2
2016-12-11T02:12:01.416Z,22.22
2016-12-11T02:12:15.835Z,22.22
2016-12-11T02:12:30.225Z,22.18
2016-12-11T02:12:44.540Z,22.16
2016-12-11T02:12:58.916Z,22.24
2016-12-11T02:13:13.251Z,22.18
2016-12-11T02:13:27.627Z,22.2
2016-12-11T02:13:42.030Z,22.2
2016-12-11T02:13:56.400Z,22.27
2016-12-11T02:14:10.854Z,22.18
2016-12-11T02:14:25.170Z,22.24
2016-12-11T02:14:39.533Z,22.24
2016-12-11T02:14:53.906Z,22.27
2016-12-11T02:15:08.328Z,22.24
2016-12-11T02:15:22.684Z,22.29
2016-12-11T02:15:37.072Z,22.24
2016-12-11T02:15:51.475Z,22.26
2016-12-11T02:16:05.851Z,22.29
2016-12-11T02:16:20.212Z,22.2
2016-12-11T02:16:34.608Z,22.24
2016-12-11T02:16:49.069Z,22.26
2016-12-11T02:17:03.524Z,22.24
2016-12-11T02:17:17.940Z,22.11
2016-12-11T02:17:32.302Z,22.18
2016-12-11T02:17:46.694Z,22.18
2016-12-11T02:18:01.043Z,22.29
2016-12-11T02:18:15.394Z,22.24
2016-12-11T02:18:29.746Z,22.24
2016-12-11T02:18:44.222Z,22.23
2016-12-11T02:18:58.623Z,22.2
2016-12-11T02:19:13.009Z,22.2
2016-12-11T02:19:27.338Z,22.24
2016-12-11T02:19:41.668Z,22.18
2016-12-11T02:19:56.069Z,22.18
2016-12-11T02:20:10.484Z,22.26
2016-12-11T02:20:24.865Z,22.26
2016-12-11T02:20:39.553Z,22.18
2016-12-11T02:20:53.993Z,22.23
2016-12-11T02:21:08.377Z,22.18
2016-12-11T02:21:22.748Z,22.22
2016-12-11T02:21:37.161Z,22.23
2016-12-11T02:21:51.524Z,22.22
2016-12-11T02:22:05.919Z,22.18
2016-12-11T02:22:20.291Z,22.23
2016-12-11T02:22:34.714Z,22.22
2016-12-11T02:22:49.072Z,22.16
2016-12-11T02:23:03.499Z,22.22
2016-12-11T02:23:17.905Z,22.22
2016-12-11T02:23:32.294Z,22.23
2016-12-11T02:23:46.628Z,22.18
2016-12-11T02:24:01.001Z,22.2
2016-12-11T02:24:15.385Z,22.15
2016-12-11T02:24:29.798Z,22.08
2016-12-11T02:24:44.156Z,22.2
2016-12-11T02:24:58.485Z,22.16
2016-12-11T02:25:12.910Z,22.18
2016-12-11T02:25:27.262Z,22.23
2016-12-11T02:25:41.625Z,22.2
2016-12-11T02:25:55.944Z,22.26
2016-12-11T02:26:10.326Z,22.16
2016-12-11T02:26:24.957Z,22.09
2016-12-11T02:26:39.362Z,22.18
2016-12-11T02:26:53.713Z,22.18
2016-12-11T02:27:08.019Z,22.09
2016-12-11T02:27:22.438Z,22.11
2016-12-11T02:27:36.845Z,22.12
2016-12-11T02:27:51.245Z,22.12
2016-12-11T02:28:05.643Z,22.14
2016-12-11T02:28:20.044Z,22.11
2016-12-11T02:28:34.360Z,22.07
2016-12-11T02:28:48.692Z,22.07
2016-12-11T02:29:03.120Z,22.05
2016-12-11T02:29:17.438Z,22.09
2016-12-11T02:29:31.844Z,22.07
2016-12-11T02:29:46.133Z,22.15
2016-12-11T02:30:00.553Z,22.05
2016-12-11T02:30:15.004Z,22.05
2016-12-11T02:30:29.410Z,22.07
2016-12-11T02:30:43.771Z,22.11
2016-12-11T02:30:58.178Z,22.04
2016-12-11T02:31:12.546Z,22.08
2016-12-11T02:31:26.925Z,22.08
2016-12-11T02:31:41.304Z,22.09
2016-12-11T02:31:55.777Z,22.12
2016-12-11T02:32:10.102Z,22.11
2016-12-11T02:32:24.434Z,22.15
2016-12-11T02:32:38.806Z,22.09
2016-12-11T02:32:53.172Z,22.15
2016-12-11T02:33:07.560Z,22.08
2016-12-11T02:33:21.937Z,22.14
2016-12-11T02:33:36.302Z,22.11
2016-12-11T02:33:50.646Z,22.09
2016-12-11T02:34:05.003Z,22.14
2016-12-11T02:34:19.445Z,22.14
2016-12-11T02:34:33.849Z,22.09
2016-12-11T02:34:48.283Z,22.23
2016-12-11T02:35:02.705Z,22.23
2016-12-11T02:35:17.098Z,22.18
2016-12-11T02:35:31.500Z,22.23
2016-12-11T02:35:45.916Z,22.22
2016-12-11T02:36:00.310Z,22.22
2016-12-11T02:36:14.764Z,22.12
2016-12-11T02:36:29.137Z,22.22
2016-12-11T02:36:43.497Z,22.2
2016-12-11T02:36:58.094Z,22.15
2016-12-11T02:37:12.483Z,22.16
2016-12-11T02:37:26.809Z,22.23
2016-12-11T02:37:41.250Z,22.24
2016-12-11T02:37:55.635Z,22.24
2016-12-11T02:38:10.000Z,22.18
2016-12-11T02:38:24.465Z,22.22
2016-12-11T02:38:38.931Z,22.22
2016-12-11T02:38:53.335Z,22.2
2016-12-11T02:39:07.688Z,22.18
2016-12-11T02:39:22.094Z,22.18
2016-12-11T02:39:36.512Z,22.3
2016-12-11T02:39:50.855Z,22.2
2016-12-11T02:40:05.225Z,22.29
2016-12-11T02:40:19.629Z,22.24
2016-12-11T02:40:34.031Z,22.23
2016-12-11T02:40:48.381Z,22.18
2016-12-11T02:41:02.724Z,22.29
2016-12-11T02:41:17.076Z,22.23
2016-12-11T02:41:31.721Z,22.22
2016-12-11T02:41:46.133Z,22.18
2016-12-11T02:42:00.492Z,22.24
2016-12-11T02:42:14.962Z,22.24
2016-12-11T02:42:29.377Z,22.3
2016-12-11T02:42:43.797Z,22.26
2016-12-11T02:42:58.187Z,22.24
2016-12-11T02:43:12.575Z,22.3
2016-12-11T02:43:26.965Z,22.27
2016-12-11T02:43:41.257Z,22.3
2016-12-11T02:43:55.599Z,22.33
2016-12-11T02:44:10.066Z,22.36
2016-12-11T02:44:24.458Z,22.3
2016-12-11T02:44:38.790Z,22.29
2016-12-11T02:44:53.110Z,22.26
2016-12-11T02:45:07.518Z,22.29
2016-12-11T02:45:21.912Z,22.29
2016-12-11T02:45:36.301Z,22.33
2016-12-11T02:45:50.748Z,22.39
2016-12-11T02:46:05.146Z,22.29
2016-12-11T02:46:19.554Z,22.33
2016-12-11T02:46:33.938Z,22.29
2016-12-11T02:46:48.386Z,22.38
2016-12-11T02:47:02.786Z,22.44
2016-12-11T02:47:17.134Z,22.36
2016-12-11T02:47:31.571Z,22.48
2016-12-11T02:47:45.959Z,22.51
2016-12-11T02:48:00.379Z,22.52
2016-12-11T02:48:14.774Z,22.51
2016-12-11T02:48:29.178Z,22.61
2016-12-11T02:48:43.509Z,22.59
2016-12-11T02:48:57.821Z,22.55
2016-12-11T02:49:12.242Z,22.63
2016-12-11T02:49:26.654Z,22.6
2016-12-11T02:49:41.113Z,22.6
2016-12-11T02:49:55.473Z,22.57
2016-12-11T02:50:09.778Z,22.61
2016-12-11T02:50:24.241Z,22.59
2016-12-11T02:50:38.625Z,22.54
2016-12-11T02:50:53.001Z,22.67
2016-12-11T02:51:07.417Z,22.6
2016-12-11T02:51:21.841Z,22.57
2016-12-11T02:51:36.293Z,22.59
2016-12-11T02:51:50.607Z,22.63
2016-12-11T02:52:04.975Z,22.6
2016-12-11T02:52:19.403Z,22.6
2016-12-11T02:52:33.777Z,22.61
2016-12-11T02:52:48.150Z,22.54
2016-12-11T02:53:02.548Z,22.61
2016-12-11T02:53:16.947Z,22.54
2016-12-11T02:53:31.331Z,22.57
2016-12-11T02:53:45.693Z,22.64
2016-12-11T02:54:00.004Z,22.59
2016-12-11T02:54:14.387Z,22.61
2016-12-11T02:54:28.767Z,22.64
2016-12-11T02:54:43.132Z,22.66
2016-12-11T02:54:57.472Z,22.67
2016-12-11T02:55:11.978Z,22.66
2016-12-11T02:55:26.404Z,22.64
2016-12-11T02:55:40.796Z,22.81
2016-12-11T02:55:55.213Z,22.73
2016-12-11T02:56:09.663Z,22.76
2016-12-11T02:56:24.063Z,22.67
2016-12-11T02:56:38.685Z,22.76
2016-12-11T02:56:53.119Z,22.69
2016-12-11T02:57:07.471Z,22.71
2016-12-11T02:57:21.889Z,22.66
2016-12-11T02:57:36.266Z,22.66
2016-12-11T02:57:50.708Z,22.67
2016-12-11T02:58:05.073Z,22.67
2016-12-11T02:58:19.433Z,22.64
2016-12-11T02:58:33.855Z,22.73
2016-12-11T02:58:48.236Z,22.69
2016-12-11T02:59:02.615Z,22.7
2016-12-11T02:59:16.985Z,22.7
2016-12-11T02:59:31.380Z,22.73
2016-12-11T02:59:45.769Z,22.73
2016-12-11T03:00:00.160Z,22.63
2016-12-11T03:00:14.588Z,22.67
2016-12-11T03:00:28.928Z,22.69
2016-12-11T03:00:43.295Z,22.7
2016-12-11T03:00:57.639Z,22.64
2016-12-11T03:01:11.967Z,22.7
2016-12-11T03:01:26.358Z,22.66
2016-12-11T03:01:40.772Z,22.63
2016-12-11T03:01:55.084Z,22.59
2016-12-11T03:02:09.478Z,22.61
2016-12-11T03:02:23.903Z,22.64
2016-12-11T03:02:38.269Z,22.55
2016-12-11T03:02:52.655Z,22.57
2016-12-11T03:03:07.000Z,22.45
2016-12-11T03:03:21.441Z,22.57
2016-12-11T03:03:35.820Z,22.42
2016-12-11T03:03:50.345Z,22.42
2016-12-11T03:04:04.875Z,22.45
2016-12-11T03:04:19.268Z,22.36
2016-12-11T03:04:33.668Z,22.41
2016-12-11T03:04:48.075Z,22.36
2016-12-11T03:05:02.446Z,22.29
2016-12-11T03:05:16.838Z,22.36
2016-12-11T03:05:31.219Z,22.38
2016-12-11T03:05:45.576Z,22.33